Time;durP1;ratioP1;P1;durP2;ratioP2;P2;SDS_P1;SDS_P2;PMS_P1;PMS_P2;Temp;Humidity;BMP_temperature;BMP_pressure;BME280_temperature;BME280_humidity;BME280_pressure;Samples;Min_cycle;Max_cycle;Signal;HPM_P1;HPM_P2
2022/06/06 00:02:10;;;;;;;1.40;1.20;;;;;;;12.65;81.44;99213.49;104927;1271;75514;-24
2022/06/06 00:04:37;;;;;;;2.70;1.90;;;;;;;13.14;79.70;99214.24;104915;1271;76012;-24
2022/06/06 00:07:05;;;;;;;2.00;1.80;;;;;;;13.18;79.18;99209.34;105159;1271;74330;-24
2022/06/06 00:09:33;;;;;;;1.90;1.80;;;;;;;13.01;79.31;99210.66;105037;1274;61705;-24
2022/06/06 00:12:01;;;;;;;6.00;2.10;;;;;;;12.78;79.45;99208.88;105096;1269;61143;-24
2022/06/06 00:14:28;;;;;;;3.60;1.80;;;;;;;12.51;79.87;99210.50;104925;1271;76724;-24
2022/06/06 00:16:56;;;;;;;2.10;1.10;;;;;;;12.30;79.98;99208.48;105136;1271;77000;-24
2022/06/06 00:19:23;;;;;;;1.10;1.10;;;;;;;12.67;79.72;99206.84;104938;1271;74377;-24
2022/06/06 00:21:51;;;;;;;1.90;1.70;;;;;;;13.13;78.20;99205.98;104806;1272;63057;-24
2022/06/06 00:24:18;;;;;;;1.80;1.70;;;;;;;13.12;77.81;99206.45;104862;1271;62087;-25
2022/06/06 00:26:46;;;;;;;2.10;1.90;;;;;;;12.90;78.20;99207.81;104918;1271;76807;-24
2022/06/06 00:29:16;;;;;;;2.30;2.10;;;;;;;12.63;79.11;99206.16;105103;1271;76788;-24
2022/06/06 00:37:19;;;;;;;2.20;2.00;;;;;;;12.65;79.09;99209.17;104790;1271;61853;-24
2022/06/06 00:39:46;;;;;;;3.00;2.80;;;;;;;13.07;77.92;99208.57;104686;1274;76647;-24
2022/06/06 00:42:23;;;;;;;2.10;1.90;;;;;;;13.01;77.98;99209.46;104796;1271;76763;-24
2022/06/06 00:45:28;;;;;;;2.50;2.30;;;;;;;12.74;78.21;99208.69;104483;1274;75444;-24
2022/06/06 00:47:56;;;;;;;2.30;2.10;;;;;;;12.35;78.38;99211.20;105099;1271;63165;-24
2022/06/06 00:50:43;;;;;;;6.00;2.00;;;;;;;12.03;78.12;99209.55;104987;1271;61676;-24
2022/06/06 00:53:10;;;;;;;3.40;1.20;;;;;;;11.65;77.76;99213.21;104679;1271;75487;-24
2022/06/06 00:55:41;;;;;;;2.20;1.60;;;;;;;12.05;78.87;99213.91;104838;1271;76109;-24
2022/06/06 00:58:12;;;;;;;2.90;2.40;;;;;;;12.54;77.87;99214.46;104624;1271;72712;-24
2022/06/06 01:00:39;;;;;;;3.90;2.70;;;;;;;12.54;77.87;99217.41;104816;1271;62814;-24
2022/06/06 01:03:07;;;;;;;2.00;1.80;;;;;;;12.30;77.58;99218.42;104642;1271;63061;-24
2022/06/06 01:05:34;;;;;;;4.60;1.90;;;;;;;11.93;78.04;99220.30;104713;1271;76521;-24
2022/06/06 01:08:03;;;;;;;2.20;2.00;;;;;;;11.57;78.74;99220.96;104754;1274;77410;-24
2022/06/06 01:10:30;;;;;;;1.80;1.10;;;;;;;11.30;79.15;99222.55;104775;1271;75491;-24
2022/06/06 01:12:58;;;;;;;1.40;1.30;;;;;;;11.60;79.28;99221.08;104904;1271;62124;-24
2022/06/06 01:15:26;;;;;;;3.30;2.00;;;;;;;11.99;77.04;99220.98;104837;1272;61922;-24
2022/06/06 01:18:14;;;;;;;2.50;2.20;;;;;;;11.88;77.94;99218.06;104763;1270;76621;-24
2022/06/06 01:21:18;;;;;;;1.90;1.80;;;;;;;11.67;79.33;99220.88;104721;1271;77027;-24
2022/06/06 01:23:51;;;;;;;2.60;2.00;;;;;;;11.42;80.82;99221.75;104856;1271;75388;-24
2022/06/06 01:26:40;;;;;;;2.00;1.20;;;;;;;11.23;82.13;99223.92;104934;1271;63504;-24
2022/06/06 01:29:11;;;;;;;2.00;1.70;;;;;;;11.74;81.48;99222.23;104961;1271;61982;-24
2022/06/06 01:31:48;;;;;;;2.10;1.90;;;;;;;12.17;79.62;99222.10;105097;1271;75423;-24
2022/06/06 01:34:28;;;;;;;2.00;1.60;;;;;;;12.14;79.01;99221.34;105037;1271;75900;-24
2022/06/06 01:36:55;;;;;;;2.20;2.00;;;;;;;11.80;78.86;99218.62;104753;1272;75511;-24
2022/06/06 01:39:23;;;;;;;4.10;2.30;;;;;;;11.47;80.82;99215.61;104725;1272;61778;-24
2022/06/06 01:42:15;;;;;;;1.30;1.20;;;;;;;11.22;83.44;99217.23;104709;1271;62804;-24
2022/06/06 01:44:51;;;;;;;2.10;1.70;;;;;;;11.69;82.91;99213.75;104604;1272;76432;-24
2022/06/06 01:47:21;;;;;;;4.50;2.30;;;;;;;12.05;80.37;99214.42;104783;1271;76217;-24
2022/06/06 01:49:49;;;;;;;4.30;2.10;;;;;;;11.96;80.57;99219.70;104490;1272;75147;-24
2022/06/06 01:52:16;;;;;;;2.30;2.10;;;;;;;11.77;80.78;99221.60;104823;1270;63085;-24
2022/06/06 01:54:44;;;;;;;2.70;2.50;;;;;;;11.53;82.07;99220.31;104806;1271;62736;-24
2022/06/06 01:57:13;;;;;;;1.30;1.10;;;;;;;11.32;83.41;99212.26;104915;1271;74601;-24
2022/06/06 01:59:41;;;;;;;2.40;1.40;;;;;;;11.74;83.33;99212.14;104742;1271;77017;-24
2022/06/06 02:02:09;;;;;;;3.70;1.90;;;;;;;12.23;81.41;99213.96;104814;1271;73277;-25
2022/06/06 02:04:36;;;;;;;2.10;1.90;;;;;;;12.31;80.73;99218.34;104783;1271;63614;-24
2022/06/06 02:07:04;;;;;;;1.90;1.70;;;;;;;12.12;79.47;99219.23;104801;1271;61160;-24
2022/06/06 02:09:32;;;;;;;2.50;2.30;;;;;;;11.82;79.18;99217.23;104847;1271;75608;-24
2022/06/06 02:12:00;;;;;;;3.40;2.60;;;;;;;11.52;80.50;99219.14;104922;1271;77025;-24
2022/06/06 02:14:27;;;;;;;2.20;1.00;;;;;;;11.33;81.36;99222.28;104793;1271;74411;-24
2022/06/06 02:16:55;;;;;;;2.60;1.60;;;;;;;11.76;81.57;99219.61;104994;1271;61935;-24
2022/06/06 02:19:22;;;;;;;2.20;1.90;;;;;;;12.29;79.84;99227.55;105267;1271;62937;-24
2022/06/06 02:21:50;;;;;;;2.60;1.90;;;;;;;12.31;79.16;99227.05;104967;1271;77055;-24
2022/06/06 02:24:17;;;;;;;4.20;2.00;;;;;;;12.13;78.94;99230.15;104789;1271;76958;-24
2022/06/06 02:26:44;;;;;;;6.40;2.10;;;;;;;11.97;80.05;99230.41;104888;1271;74351;-24
2022/06/06 02:29:11;;;;;;;1.70;1.20;;;;;;;11.96;81.09;99224.71;104945;1271;61799;-25
2022/06/06 02:31:39;;;;;;;1.80;1.30;;;;;;;12.48;80.53;99220.35;104737;1271;63141;-24
2022/06/06 02:34:07;;;;;;;2.50;2.10;;;;;;;13.01;78.78;99220.31;104811;1271;75544;-24
2022/06/06 02:36:34;;;;;;;1.90;1.80;;;;;;;13.18;78.05;99221.52;104702;1272;75998;-24
2022/06/06 02:39:02;;;;;;;2.00;1.80;;;;;;;13.29;77.05;99221.16;104920;1270;74537;-24
2022/06/06 02:41:29;;;;;;;2.50;2.10;;;;;;;13.31;76.68;99221.16;104796;1271;61950;-24
2022/06/06 02:43:56;;;;;;;2.50;2.30;;;;;;;13.34;76.42;99219.13;104934;1271;61734;-24
2022/06/06 02:46:24;;;;;;;1.30;1.10;;;;;;;13.37;76.50;99215.34;104812;1271;75768;-24
2022/06/06 02:48:52;;;;;;;3.70;1.70;;;;;;;14.06;76.40;99210.80;104921;1269;75955;-24
2022/06/06 02:51:19;;;;;;;3.30;1.90;;;;;;;14.92;74.52;99202.69;104872;1271;74465;-24
2022/06/06 02:53:46;;;;;;;2.50;1.80;;;;;;;15.34;72.60;99199.05;104897;1271;62756;-24
2022/06/06 02:56:14;;;;;;;2.80;2.10;;;;;;;15.49;71.99;99197.36;104906;1271;62940;-24
2022/06/06 02:58:41;;;;;;;2.30;2.10;;;;;;;15.55;70.99;99199.52;104800;1272;75682;-24
2022/06/06 03:01:09;;;;;;;2.10;1.90;;;;;;;15.55;70.35;99200.61;104859;1271;76430;-24
2022/06/06 03:03:37;;;;;;;2.10;1.40;;;;;;;15.48;70.16;99204.06;104689;1271;74460;-24
2022/06/06 03:06:05;;;;;;;1.70;1.50;;;;;;;16.05;69.57;99198.77;104729;1271;62809;-24
2022/06/06 03:08:35;;;;;;;2.50;1.80;;;;;;;16.78;67.98;99198.89;104869;1271;61662;-24
2022/06/06 03:11:13;;;;;;;2.20;1.90;;;;;;;17.05;67.10;99200.92;104904;1271;76942;-25
2022/06/06 03:14:23;;;;;;;2.30;1.80;;;;;;;17.15;66.31;99196.73;104679;1273;77041;-24
2022/06/06 03:23:26;;;;;;;2.00;1.90;;;;;;;17.07;67.28;99188.98;104847;1271;63198;-24
2022/06/06 03:26:15;;;;;;;2.40;1.60;;;;;;;17.03;68.52;99193.17;104634;1271;75795;-24
2022/06/06 03:29:19;;;;;;;3.20;1.60;;;;;;;18.02;67.40;99192.84;104958;1271;75960;-24
2022/06/06 03:31:54;;;;;;;2.40;2.20;;;;;;;18.78;64.70;99188.83;104979;1271;74521;-24
2022/06/06 03:34:34;;;;;;;2.30;2.10;;;;;;;19.07;64.11;99186.57;104706;1274;61754;-24
2022/06/06 03:37:27;;;;;;;2.50;2.00;;;;;;;19.21;63.14;99190.45;104773;1271;61075;-24
2022/06/06 03:40:12;;;;;;;2.40;2.20;;;;;;;19.21;62.59;99189.43;104814;1271;75776;-24
2022/06/06 03:43:08;;;;;;;3.10;2.20;;;;;;;19.16;63.57;99187.66;104781;1271;76008;-24
2022/06/06 03:45:41;;;;;;;3.40;2.60;;;;;;;19.25;63.34;99186.69;104743;1271;75367;-24
2022/06/06 03:48:12;;;;;;;;;;;;;;;19.29;63.36;99181.60;104630;1272;63115;-24
2022/06/06 03:50:40;;;;;;;2.30;2.10;;;;;;;19.24;63.53;99177.49;104844;1272;61760;-24
2022/06/06 03:53:16;;;;;;;5.50;2.40;;;;;;;19.20;64.02;99176.23;104898;1271;75605;-24
2022/06/06 03:56:02;;;;;;;3.00;1.70;;;;;;;19.17;64.26;99176.83;104714;1271;77078;-24
2022/06/06 03:58:31;;;;;;;2.00;1.80;;;;;;;19.90;63.75;99174.30;105027;1271;75400;-24
2022/06/06 04:01:04;;;;;;;5.00;3.30;;;;;;;20.60;61.63;99180.02;104689;1271;63354;-25
2022/06/06 04:03:32;;;;;;;8.50;5.50;;;;;;;20.83;61.15;99182.51;104895;1271;61883;-24
2022/06/06 04:06:04;;;;;;;6.80;5.20;;;;;;;20.81;60.65;99183.23;104631;1274;75521;-24
2022/06/06 04:08:32;;;;;;;7.00;4.10;;;;;;;20.77;60.96;99185.30;104757;1271;75981;-24
2022/06/06 04:11:28;;;;;;;4.70;3.50;;;;;;;20.65;60.65;99185.08;104945;1271;75708;-24
2022/06/06 04:14:02;;;;;;;5.50;3.30;;;;;;;20.61;60.96;99183.01;104730;1272;61734;-24
2022/06/06 04:16:38;;;;;;;3.60;2.90;;;;;;;20.58;61.07;99182.61;104636;1272;63170;-24
2022/06/06 04:19:45;;;;;;;3.20;2.90;;;;;;;20.56;61.44;99183.80;104788;1271;76858;-24
2022/06/06 04:22:18;;;;;;;3.00;2.70;;;;;;;20.49;61.05;99180.63;104713;1270;75865;-24
2022/06/06 04:25:04;;;;;;;3.30;3.00;;;;;;;20.34;61.36;99183.56;104717;1271;75223;-24
2022/06/06 04:27:54;;;;;;;4.10;3.00;;;;;;;20.42;61.69;99185.89;104733;1271;61946;-24
2022/06/06 04:30:24;;;;;;;5.90;2.60;;;;;;;20.46;62.05;99189.23;104917;1271;61756;-24
2022/06/06 04:33:19;;;;;;;3.80;3.40;;;;;;;20.51;61.72;99186.84;104809;1271;75304;-24
2022/06/06 04:36:13;;;;;;;3.10;2.80;;;;;;;20.53;61.68;99189.39;104648;1272;77070;-24
2022/06/06 04:38:46;;;;;;;;;;;;;;;20.54;61.59;99189.55;105057;1271;75137;-24
2022/06/06 04:41:33;;;;;;;2.50;2.30;;;;;;;20.54;62.01;99197.29;104797;1274;63154;-24
2022/06/06 04:44:39;;;;;;;4.20;2.90;;;;;;;20.65;61.66;99195.02;104629;1271;63099;-24
2022/06/06 04:47:39;;;;;;;3.70;2.70;;;;;;;20.43;62.38;99197.16;104548;1272;76587;-24
2022/06/06 04:50:14;;;;;;;3.00;2.50;;;;;;;20.70;61.64;99202.39;104536;1272;77425;-24
2022/06/06 04:52:46;;;;;;;4.10;3.10;;;;;;;20.85;62.14;99204.48;105043;1271;75137;-24
2022/06/06 04:55:14;;;;;;;4.20;2.70;;;;;;;20.86;61.02;99205.30;104766;1272;62809;-24
2022/06/06 04:57:43;;;;;;;4.30;3.30;;;;;;;20.93;61.43;99207.45;104981;1271;62814;-23
2022/06/06 05:00:11;;;;;;;3.40;3.10;;;;;;;20.92;61.03;99212.24;104877;1271;76637;-24
2022/06/06 05:02:38;;;;;;;7.60;3.10;;;;;;;21.12;60.82;99216.62;104889;1271;76881;-24
2022/06/06 05:05:06;;;;;;;3.80;3.20;;;;;;;21.16;60.23;99220.89;105104;1272;75403;-24
2022/06/06 05:08:01;;;;;;;3.40;3.10;;;;;;;21.16;60.89;99223.50;105104;1274;62041;-25
2022/06/06 05:10:44;;;;;;;17.50;3.00;;;;;;;20.75;61.86;99223.95;105118;1271;61802;-24
2022/06/06 05:13:27;;;;;;;3.60;2.90;;;;;;;21.16;61.44;99222.23;105133;1271;76560;-24
2022/06/06 05:16:01;;;;;;;2.70;2.50;;;;;;;21.42;59.61;99219.35;105017;1271;77125;-25
2022/06/06 05:19:06;;;;;;;3.70;2.90;;;;;;;21.62;59.53;99219.00;104965;1271;74139;-24
2022/06/06 05:21:40;;;;;;;3.80;2.50;;;;;;;21.22;59.15;99212.94;104961;1271;62358;-24
2022/06/06 05:24:45;;;;;;;2.70;2.50;;;;;;;20.30;60.20;99213.64;105004;1271;63088;-24
2022/06/06 05:27:28;;;;;;;3.40;3.10;;;;;;;20.80;60.29;99222.17;105073;1274;76563;-24
2022/06/06 05:30:05;;;;;;;3.50;2.80;;;;;;;19.94;62.47;99221.27;105261;1271;75931;-24
2022/06/06 05:32:32;;;;;;;5.90;3.10;;;;;;;20.20;62.45;99220.89;105149;1271;75389;-25
2022/06/06 05:35:06;;;;;;;5.30;3.30;;;;;;;20.81;61.73;99222.25;105347;1271;61832;-24
2022/06/06 05:37:59;;;;;;;3.00;2.70;;;;;;;21.23;59.53;99221.12;105093;1272;61760;-24
2022/06/06 05:41:20;;;;;;;2.80;2.50;;;;;;;21.59;58.77;99221.90;104787;1274;76618;-24
2022/06/06 05:44:23;;;;;;;3.30;2.80;;;;;;;20.89;59.91;99225.56;104411;1280;77016;-24
2022/06/06 05:47:17;;;;;;;4.70;3.60;;;;;;;20.80;59.71;99225.38;104273;1278;74719;-24
2022/06/06 05:50:12;;;;;;;3.20;2.90;;;;;;;21.14;59.31;99228.85;104232;1278;62191;-24
2022/06/06 05:52:44;;;;;;;3.10;2.80;;;;;;;21.10;58.46;99232.48;104493;1277;61673;-24
2022/06/06 05:55:12;;;;;;;3.00;2.70;;;;;;;21.43;58.57;99236.20;104352;1277;75400;-24
2022/06/06 05:57:51;;;;;;;4.40;3.00;;;;;;;21.44;56.41;99233.92;104179;1278;77017;-24
2022/06/06 06:00:37;;;;;;;3.30;2.70;;;;;;;21.34;57.08;99237.16;104212;1280;75349;-23
2022/06/06 06:03:23;;;;;;;3.20;2.90;;;;;;;21.38;57.29;99243.77;104224;1280;61806;-24
2022/06/06 06:05:56;;;;;;;3.90;2.70;;;;;;;21.24;58.25;99246.10;104216;1276;62049;-24
2022/06/06 06:08:55;;;;;;;3.20;2.90;;;;;;;21.81;57.00;99247.39;104230;1278;74940;-24
2022/06/06 06:11:37;;;;;;;8.00;2.50;;;;;;;21.53;56.58;99245.37;104427;1277;76999;-24
2022/06/06 06:14:10;;;;;;;2.70;2.50;;;;;;;22.09;56.60;99248.56;104388;1278;74408;-23
2022/06/06 06:16:42;;;;;;;2.90;2.50;;;;;;;22.27;54.87;99247.08;104422;1280;61804;-23
2022/06/06 06:19:12;;;;;;;3.80;2.70;;;;;;;22.54;54.15;99250.76;104360;1280;63068;-23
2022/06/06 06:22:06;;;;;;;5.80;2.50;;;;;;;22.82;52.36;99250.40;104356;1274;76643;-23
2022/06/06 06:24:36;;;;;;;2.70;2.10;;;;;;;22.99;52.68;99251.34;104994;1271;74777;-23
2022/06/06 06:27:04;;;;;;;2.60;2.40;;;;;;;22.99;50.53;99254.57;104682;1271;75481;-23
2022/06/06 06:29:31;;;;;;;3.50;2.40;;;;;;;22.96;50.42;99253.34;104832;1271;62754;-24
2022/06/06 06:32:10;;;;;;;3.70;2.50;;;;;;;22.78;50.57;99258.66;104746;1272;61721;-23
2022/06/06 06:35:02;;;;;;;2.90;2.60;;;;;;;22.59;49.92;99257.52;104811;1271;76593;-23
2022/06/06 06:37:51;;;;;;;2.60;2.40;;;;;;;22.36;51.35;99262.42;104612;1274;75884;-24
2022/06/06 06:40:56;;;;;;;2.50;2.30;;;;;;;22.92;49.22;99262.83;104756;1271;75415;-23
2022/06/06 06:43:46;;;;;;;3.80;2.40;;;;;;;23.19;49.20;99263.50;104742;1274;62085;-23
2022/06/06 06:46:27;;;;;;;3.20;2.70;;;;;;;22.70;49.17;99265.66;104797;1274;62645;-23
2022/06/06 06:49:16;;;;;;;3.30;3.00;;;;;;;22.59;50.47;99265.75;104768;1269;76535;-23
2022/06/06 06:52:14;;;;;;;4.90;3.10;;;;;;;22.98;50.01;99270.82;104805;1270;76147;-24
2022/06/06 06:54:56;;;;;;;3.50;2.40;;;;;;;23.25;47.54;99268.85;104816;1271;75486;-23
2022/06/06 06:57:39;;;;;;;2.50;2.20;;;;;;;22.34;47.13;99264.98;104769;1274;61732;-24
2022/06/06 07:00:14;;;;;;;2.90;2.20;;;;;;;22.67;49.08;99274.02;104695;1271;61304;-24
2022/06/06 07:08:48;;;;;;;2.60;2.10;;;;;;;23.21;47.25;99272.67;104733;1271;75317;-24
2022/06/06 07:11:18;;;;;;;2.60;2.40;;;;;;;22.75;47.58;99268.17;104815;1271;61917;-23
2022/06/06 07:13:51;;;;;;;3.30;2.30;;;;;;;22.57;48.02;99269.41;104908;1271;62068;-23
2022/06/06 07:16:30;;;;;;;2.90;2.10;;;;;;;22.82;48.49;99273.46;104760;1274;76613;-24
2022/06/06 07:19:01;;;;;;;2.50;1.90;;;;;;;22.90;46.32;99276.88;104715;1272;76044;-24
2022/06/06 07:21:30;;;;;;;2.20;2.00;;;;;;;23.14;44.60;99281.05;104647;1274;75367;-23
2022/06/06 07:24:23;;;;;;;1.90;1.80;;;;;;;23.73;44.82;99273.07;104689;1271;62031;-24
2022/06/06 07:26:51;;;;;;;3.10;1.90;;;;;;;24.03;43.69;99271.61;105073;1271;62006;-23
2022/06/06 07:29:19;;;;;;;2.80;2.10;;;;;;;23.29;42.92;99274.45;104996;1271;75601;-24
2022/06/06 07:32:02;;;;;;;1.90;1.60;;;;;;;22.85;43.58;99278.13;104698;1275;76068;-24
2022/06/06 07:34:58;;;;;;;3.40;2.10;;;;;;;23.50;44.69;99275.35;104790;1271;74508;-24
2022/06/06 07:38:16;;;;;;;2.10;2.00;;;;;;;24.06;44.50;99270.29;104810;1272;61137;-23
2022/06/06 07:41:16;;;;;;;2.10;1.80;;;;;;;24.54;45.43;99265.19;104776;1271;61719;-23
2022/06/06 07:44:31;;;;;;;2.80;2.50;;;;;;;24.80;43.44;99268.56;104767;1271;75377;-23
2022/06/06 07:46:58;;;;;;;2.40;2.00;;;;;;;24.91;43.56;99269.42;104618;1271;76830;-23
2022/06/06 07:49:39;;;;;;;3.10;2.00;;;;;;;25.02;43.37;99269.27;104739;1272;75409;-23
2022/06/06 07:52:40;;;;;;;3.20;2.30;;;;;;;24.67;42.51;99267.52;104745;1271;61685;-24
2022/06/06 07:55:16;;;;;;;5.00;1.70;;;;;;;24.17;42.36;99265.91;104931;1271;61820;-23
2022/06/06 07:57:57;;;;;;;2.50;1.70;;;;;;;24.84;40.56;99266.09;105163;1271;75746;-24
2022/06/06 08:00:28;;;;;;;2.10;1.60;;;;;;;25.18;38.35;99261.17;104787;1271;77016;-23
2022/06/06 08:03:19;;;;;;;6.10;1.90;;;;;;;25.18;39.15;99264.40;104746;1271;75415;-24
2022/06/06 08:05:55;;;;;;;2.30;2.00;;;;;;;24.52;42.91;99265.65;104809;1273;61893;-24
2022/06/06 08:08:41;;;;;;;3.20;2.20;;;;;;;24.81;43.06;99267.08;105026;1271;61090;-25
2022/06/06 08:11:22;;;;;;;2.00;1.70;;;;;;;24.83;41.07;99269.05;105084;1271;73440;-24
2022/06/06 08:13:57;;;;;;;2.50;1.50;;;;;;;25.04;40.39;99264.98;104735;1272;75935;-25
2022/06/06 08:16:32;;;;;;;3.30;1.80;;;;;;;24.99;40.03;99260.11;104583;1274;75235;-25
2022/06/06 08:19:15;;;;;;;3.50;1.80;;;;;;;25.00;39.23;99259.08;104779;1271;62846;-24
2022/06/06 08:21:44;;;;;;;2.10;1.70;;;;;;;25.39;40.82;99259.23;104811;1271;62056;-24
2022/06/06 08:24:32;;;;;;;1.40;1.30;;;;;;;25.79;37.76;99262.41;104525;1271;374312;-24
2022/06/06 08:27:15;;;;;;;3.30;1.60;;;;;;;26.17;38.50;99261.88;105104;1271;77047;-24
2022/06/06 08:29:44;;;;;;;1.80;1.50;;;;;;;25.51;36.92;99264.81;104819;1271;75317;-25
2022/06/06 08:32:11;;;;;;;1.50;1.40;;;;;;;26.23;36.67;99264.82;105108;1271;63083;-24
2022/06/06 08:34:39;;;;;;;4.50;2.00;;;;;;;26.47;35.93;99262.85;104939;1271;61933;-24
2022/06/06 08:37:14;;;;;;;2.10;1.80;;;;;;;26.35;34.47;99263.33;105158;1271;76844;-24
2022/06/06 08:39:47;;;;;;;2.10;1.40;;;;;;;26.71;32.66;99256.91;104855;1271;77038;-24
2022/06/06 08:42:25;;;;;;;7.00;1.60;;;;;;;26.96;32.59;99261.42;105094;1271;74254;-24
2022/06/06 08:45:09;;;;;;;1.50;1.40;;;;;;;27.17;33.75;99259.82;105128;1271;63166;-24
2022/06/06 08:47:56;;;;;;;2.50;1.60;;;;;;;27.24;32.72;99260.19;105137;1270;61855;-24
2022/06/06 08:50:46;;;;;;;3.20;1.90;;;;;;;26.62;33.39;99259.25;105058;1271;74557;-24
2022/06/06 08:53:44;;;;;;;2.30;1.40;;;;;;;27.01;34.80;99265.52;104942;1271;76138;-22
2022/06/06 08:56:42;;;;;;;2.60;1.60;;;;;;;26.85;36.61;99260.67;105131;1272;75143;-22
2022/06/06 08:59:13;;;;;;;3.80;1.70;;;;;;;27.11;37.29;99258.23;104946;1271;61911;-23
2022/06/06 09:02:06;;;;;;;2.90;1.50;;;;;;;27.24;37.56;99256.02;104768;1273;61131;-23
2022/06/06 09:04:48;;;;;;;1.80;1.60;;;;;;;27.30;35.97;99255.17;105041;1271;76439;-23
2022/06/06 09:07:35;;;;;;;2.90;1.50;;;;;;;27.40;35.88;99255.35;104722;1271;75952;-23
2022/06/06 09:10:05;;;;;;;4.60;2.10;;;;;;;27.61;37.16;99248.16;104636;1271;74287;-23
2022/06/06 09:13:07;;;;;;;2.40;1.40;;;;;;;27.50;34.36;99245.66;104930;1271;63447;-24
2022/06/06 09:15:49;;;;;;;1.50;1.40;;;;;;;26.97;36.48;99240.52;105170;1271;61721;-23
2022/06/06 09:18:23;;;;;;;2.00;1.50;;;;;;;27.26;35.06;99244.33;104941;1271;76294;-23
2022/06/06 09:21:07;;;;;;;2.50;1.60;;;;;;;26.88;35.08;99243.63;104947;1271;76054;-23
2022/06/06 09:24:03;;;;;;;1.30;1.20;;;;;;;26.22;35.75;99248.56;104796;1271;75208;-24
2022/06/06 09:36:33;;;;;;;2.30;1.40;;;;;;;23.70;41.28;99240.80;104614;1277;75375;-25
2022/06/06 09:39:08;;;;;;;2.50;1.40;;;;;;;23.70;43.26;99236.79;104542;1278;77004;-25
2022/06/06 09:42:11;;;;;;;2.20;1.40;;;;;;;23.68;43.22;99235.41;104107;1278;75144;-25
2022/06/06 09:44:57;;;;;;;5.00;1.50;;;;;;;24.15;41.59;99230.45;104451;1278;63128;-25
2022/06/06 09:47:36;;;;;;;1.70;1.40;;;;;;;24.45;38.90;99227.97;104549;1278;63055;-22
2022/06/06 09:51:41;;;;;;;1.40;1.30;;;;;;;24.61;39.87;99223.92;101740;1310;601264;-23
2022/06/06 10:00:09;;;;;;;4.10;1.40;;;;;;;25.96;37.26;99215.02;103945;1286;73661;-23
2022/06/06 10:03:07;;;;;;;2.10;1.30;;;;;;;26.06;36.91;99215.35;103904;1287;76937;-23
2022/06/06 10:06:19;;;;;;;1.70;1.60;;;;;;;26.57;37.02;99213.67;104276;1277;364733;-23
2022/06/06 10:09:10;;;;;;;1.50;1.40;;;;;;;26.00;34.88;99207.79;104283;1274;61798;-24
2022/06/06 10:12:15;;;;;;;3.70;1.60;;;;;;;25.40;36.75;99212.17;104681;1274;61994;-24
2022/06/06 10:14:48;;;;;;;10.50;1.60;;;;;;;25.38;37.87;99214.15;104725;1274;74923;-24
2022/06/06 10:17:16;;;;;;;;;;;;;;;25.05;38.88;99214.05;104700;1274;74779;-23
2022/06/06 10:20:04;;;;;;;3.50;1.60;;;;;;;24.79;38.01;99216.34;104643;1274;75461;-23
2022/06/06 10:22:43;;;;;;;2.60;1.40;;;;;;;24.76;38.80;99217.88;104680;1274;62140;-23
2022/06/06 10:25:35;;;;;;;2.10;1.20;;;;;;;24.97;39.38;99213.13;104566;1274;62943;-24
2022/06/06 10:28:27;;;;;;;3.50;1.50;;;;;;;24.71;38.56;99212.83;104647;1274;75530;-24
2022/06/06 10:30:55;;;;;;;3.30;1.40;;;;;;;23.99;38.98;99213.91;104623;1275;76916;-24
2022/06/06 10:33:43;;;;;;;1.90;1.40;;;;;;;23.64;39.34;99210.27;104384;1277;75412;-24
2022/06/06 10:36:26;;;;;;;2.70;1.40;;;;;;;23.70;39.31;99210.17;104952;1271;63100;-23
2022/06/06 10:39:19;;;;;;;3.60;1.60;;;;;;;23.81;40.49;99215.08;105147;1271;63285;-24
2022/06/06 10:42:13;;;;;;;2.60;1.70;;;;;;;23.70;39.00;99215.13;104877;1271;75733;-24
2022/06/06 10:45:13;;;;;;;2.00;1.70;;;;;;;23.56;39.09;99211.14;105135;1271;77045;-23
2022/06/06 10:48:09;;;;;;;2.40;1.50;;;;;;;23.68;41.16;99208.45;104776;1271;75488;-23
2022/06/06 10:54:18;;;;;;;1.60;1.50;;;;;;;24.68;39.83;99202.80;104568;1271;63038;-24
2022/06/06 10:57:15;;;;;;;1.50;1.40;;;;;;;25.61;37.89;99199.73;104739;1274;74785;-24
2022/06/06 11:00:07;;;;;;;1.70;1.50;;;;;;;26.18;36.97;99197.91;104740;1271;76913;-24
2022/06/06 11:02:56;;;;;;;1.20;1.10;;;;;;;26.80;38.24;99199.47;104728;1272;75385;-24
2022/06/06 11:05:33;;;;;;;1.40;1.30;;;;;;;27.68;33.81;99193.42;104534;1273;61735;-24
2022/06/06 11:08:34;;;;;;;1.30;1.20;;;;;;;28.26;35.24;99197.58;104713;1274;62743;-24
2022/06/06 11:11:49;;;;;;;1.40;1.30;;;;;;;28.86;34.21;99194.30;104786;1274;75800;-24
2022/06/06 11:14:26;;;;;;;1.40;1.30;;;;;;;29.12;32.33;99193.52;104260;1280;77009;-24
2022/06/06 11:17:01;;;;;;;3.30;1.50;;;;;;;29.47;33.08;99193.38;104267;1280;74379;-24
2022/06/06 11:19:41;;;;;;;2.40;1.30;;;;;;;29.76;31.81;99191.88;104401;1280;63277;-24
2022/06/06 11:22:27;;;;;;;1.30;1.20;;;;;;;29.36;30.40;99192.13;104293;1280;63351;-24
2022/06/06 11:25:00;;;;;;;2.50;1.30;;;;;;;28.77;31.56;99194.55;104435;1280;75787;-24
2022/06/06 11:27:43;;;;;;;2.30;2.10;;;;;;;28.25;31.53;99191.70;104469;1280;77866;-24
2022/06/06 11:30:13;;;;;;;1.90;1.80;;;;;;;27.36;33.12;99188.70;104522;1280;75319;-24
2022/06/06 11:33:02;;;;;;;2.70;2.00;;;;;;;26.35;34.29;99194.90;104461;1280;63182;-24
2022/06/06 11:36:01;;;;;;;3.40;1.60;;;;;;;25.27;35.52;99191.80;104490;1280;62737;-24
2022/06/06 11:39:00;;;;;;;6.50;1.50;;;;;;;25.55;36.73;99193.04;104347;1280;75757;-24
2022/06/06 11:41:52;;;;;;;1.70;1.60;;;;;;;24.88;36.10;99189.72;104407;1280;76417;-24
2022/06/06 11:44:48;;;;;;;1.50;1.40;;;;;;;24.56;36.99;99188.15;104443;1275;75187;-24
2022/06/06 11:47:37;;;;;;;2.70;1.30;;;;;;;24.99;37.17;99186.91;104963;1272;63248;-24
2022/06/06 11:50:25;;;;;;;2.50;1.30;;;;;;;25.90;36.05;99186.48;104860;1271;61972;-24
2022/06/06 11:53:29;;;;;;;1.80;1.40;;;;;;;25.95;32.79;99179.86;104660;1274;75762;-24
2022/06/06 11:56:22;;;;;;;1.60;1.40;;;;;;;25.40;33.15;99180.44;104955;1274;75165;-24
2022/06/06 11:59:28;;;;;;;2.70;1.30;;;;;;;26.23;34.18;99182.33;104694;1274;75140;-24
2022/06/06 12:01:59;;;;;;;3.00;1.50;;;;;;;25.95;31.91;99177.42;104748;1274;63272;-24
2022/06/06 12:04:29;;;;;;;3.20;1.40;;;;;;;26.00;32.60;99174.63;104803;1274;62796;-24
2022/06/06 12:06:56;;;;;;;1.80;1.30;;;;;;;26.80;32.02;99175.16;104614;1274;74027;-23
2022/06/06 12:09:39;;;;;;;2.50;1.40;;;;;;;27.33;32.07;99169.76;104721;1274;76973;-23
2022/06/06 12:12:25;;;;;;;1.50;1.40;;;;;;;27.41;30.38;99167.84;104859;1274;75448;-23
2022/06/06 12:15:12;;;;;;;1.60;1.40;;;;;;;27.64;30.77;99166.39;104661;1274;63117;-23
2022/06/06 12:18:00;;;;;;;2.70;1.10;;;;;;;27.47;30.83;99167.99;105037;1274;61780;-24
2022/06/06 12:20:40;;;;;;;1.40;1.30;;;;;;;26.86;31.10;99166.71;104701;1274;75887;-23
2022/06/06 12:23:43;;;;;;;1.30;1.20;;;;;;;27.59;31.58;99157.66;104775;1274;75874;-24
2022/06/06 12:26:38;;;;;;;4.20;1.50;;;;;;;27.84;31.44;99156.38;104455;1280;74320;-24
2022/06/06 12:29:29;;;;;;;2.90;1.40;;;;;;;26.95;31.38;99162.85;104494;1280;63052;-24
2022/06/06 12:32:09;;;;;;;1.50;1.20;;;;;;;27.41;33.76;99157.81;104403;1279;63011;-24
2022/06/06 12:34:56;;;;;;;2.10;1.40;;;;;;;27.04;32.14;99156.29;104481;1280;76282;-24
2022/06/06 12:37:28;;;;;;;3.10;1.60;;;;;;;26.71;33.00;99156.45;104374;1280;76949;-24
2022/06/06 12:40:12;;;;;;;5.90;1.40;;;;;;;26.23;35.18;99159.75;104400;1280;75567;-24
2022/06/06 12:42:54;;;;;;;1.70;1.40;;;;;;;26.25;33.74;99153.15;104221;1281;61386;-24
2022/06/06 12:46:12;;;;;;;1.50;1.20;;;;;;;26.34;32.55;99147.27;104396;1281;63267;-23
2022/06/06 12:49:05;;;;;;;1.40;1.20;;;;;;;26.68;33.82;99148.95;104493;1280;75901;-24
2022/06/06 12:51:38;;;;;;;1.50;1.30;;;;;;;27.37;33.68;99143.59;104364;1280;75837;-24
2022/06/06 12:57:53;;;;;;;1.30;1.10;;;;;;;27.46;31.93;99140.63;104421;1280;62119;-24
2022/06/06 13:03:56;;;;;;;2.30;1.20;;;;;;;27.01;34.16;99144.16;104727;1274;75781;-24
2022/06/06 13:06:48;;;;;;;1.60;1.30;;;;;;;26.84;32.68;99143.35;104787;1274;76169;-23
2022/06/06 13:09:18;;;;;;;2.50;1.40;;;;;;;26.74;32.89;99143.39;104760;1274;75150;-24
2022/06/06 13:11:55;;;;;;;2.20;1.20;;;;;;;27.00;33.72;99143.05;104652;1274;63124;-24
2022/06/06 13:14:48;;;;;;;2.70;1.30;;;;;;;26.76;31.98;99139.19;104633;1274;61863;-24